Pagina principale
METAR-TAF:

METAR-TAF

Aeroporti :

Aeroporto Internazionale del Kuwait

Madinat al-Kuwait, Kuwait

latitudine: 29-13N, longitudine: 047-59E, altezza: 55 m

Osservazione

Il bollettino è stato emesso 57 minuti fa, alle 09:00 UTC
Vento 8 kt da nord
Temperature 44°C
Umidità 11%
Pressione 1002 hPa
Visibilità 10 km o più
nessuna nube inferiore a 1500 m e nessun cumulonembo

METAR: OKBK 230900Z 35008KT CAVOK 44/07 Q1002 NOSIG

Ora: 12:57 (09:57 UTC)

Previsione

Il bollettino è stato emesso 5 ore e 12 minuti fa, alle 04:45 UTC
Previsione valida dal 23 alle 06 UTC al 24 alle 12 UTC
Vento 8 kt da nord/nord-ovest con raffiche fino a 20 kt
Visibilità: 7000 m
Cielo sereno
Temporaneamente
dal 23 alle 12 UTC al 23 alle 21 UTC
Vento 12 kt da sud/sud-est

TAF: OKBK 230445Z 2306/2412 33008G20KT 7000 SKC TEMPO 2312/2321 16012KT

Osservazioni e previsioni meteorologiche di più di 4000 aeroporti (messaggi METAR e TAF).

Le stazioni disponibili sono rappresentate dai dischi gialli e rossi sulla carta.

Puntare il mouse per vedere il nome della stazione.

Clicca sopra per visualizzare le osservazioni e previsioni meteorologiche.

Per cambiare la mappa : fare clic sui pulsanti verdi con una croce nera per ingrandire, il pulsante verde con un trattino per diminuire, o sulla freccia verde per le mappe adiacenti.


METAR-TAF: